Creek Data

    Home     View Charts     View Raw Data     Messages

ID Distance Battery Voltage Battery Current Internal Temp Internal Humidity External Temp Solar Input rssi snr Time Stamp Record
36227 0.0 4.14 0 67 43 62 5.1 -87 8 03/28/2025 05:30 PM 18075
36226 0.0 4.03 0 68 44 61 5.1 -84 8 03/28/2025 05:15 PM 18074
36225 0.0 4.04 0 73 41 66 5.1 -84 8 03/28/2025 05:00 PM 18073
36224 0.0 4.03 0 70 43 65 5.1 -82 9 03/28/2025 04:45 PM 18072
36223 0.0 4.03 0 74 41 64 5.1 -95 6 03/28/2025 04:30 PM 18071
36222 0.0 4.03 0 75 40 66 5.1 -86 6 03/28/2025 04:15 PM 18070
36221 0.0 4.03 0 75 40 67 5.1 -88 7 03/28/2025 04:00 PM 18069
36220 0.0 4.14 0 76 39 65 5.1 -86 8 03/28/2025 03:45 PM 18068
36219 0.0 4.03 0 75 39 66 5.1 -81 8 03/28/2025 03:30 PM 18067
36218 0.0 4.03 0 73 40 65 5.1 -82 9 03/28/2025 03:15 PM 18066
36217 0.0 4.04 0 72 40 65 5.1 -84 8 03/28/2025 03:00 PM 18065
36216 0.0 4.04 0 73 40 66 5.1 -88 8 03/28/2025 02:45 PM 18064
36215 0.0 4.03 0 72 40 64 5.1 -87 7 03/28/2025 02:31 PM 18063
36214 0.0 4.03 0 73 38 66 5.1 -82 9 03/28/2025 02:00 PM 18061
36213 0.0 4.10 0 72 39 65 5.1 -87 7 03/28/2025 01:45 PM 18060
36212 0.0 4.03 0 72 38 66 5.1 -87 7 03/28/2025 01:30 PM 18059
36211 0.0 4.03 0 71 39 64 5.1 -87 7 03/28/2025 01:15 PM 18058
36210 0.0 4.04 0 71 38 65 5.1 -84 8 03/28/2025 01:00 PM 18057
36209 0.0 4.03 0 70 39 66 5.1 -86 7 03/28/2025 12:45 PM 18056
36208 0.0 4.03 0 68 39 62 5.1 -88 7 03/28/2025 12:31 PM 18055
36207 0.0 4.03 0 67 40 62 5.1 -88 7 03/28/2025 12:15 PM 18054
36206 0.0 4.03 0 67 39 64 5.1 -87 8 03/28/2025 12:01 PM 18053
36205 0.0 4.03 0 66 39 64 5.1 -84 9 03/28/2025 11:45 AM 18052
36204 0.0 4.03 0 63 40 64 5.1 -87 7 03/28/2025 11:30 AM 18051
36203 15.1 4.03 0 62 40 61 5.1 -88 7 03/28/2025 11:15 AM 18050